Fargo, ND

7:34 AM CST on February 06, 2016 (GMT -0600)
Hector International | | Change Station
CLOSE
Current Station
Airport
Location: Fargo,
Elevation: 899 ft
Nearby Weather Stations
Active Advisory: Blizzard Watch

Elev 899 ft 46.91 °N, 96.81 °W | Updated 41 minutes ago

Partly Cloudy
Partly Cloudy
23 °F
Feels Like 12 °F
N
12
Wind Variable Wind from South

Today
High -- | Low -- °F
--% Chance of Precip.
Yesterday
High -- | Low -- °F
Precip. -- in
Pressure 29.96 in
Visibility 10.0 miles
Clouds Few 12000 ft
Windchill 12 °F
Dew Point 18 °F
Humidity 81%
Rainfall 0.00 in
Snow Depth Not available.
7:45 AM 5:37 PM
Waning Crescent, 5% visible
METAR KFAR 061253Z 17010KT 10SM FEW120 M05/M08 A2991 RMK AO2 SLP146 T10501078
Pressure 29.96 in
Visibility 10.0 miles
Clouds Few 12000 ft
Windchill 12 °F
Dew Point 18 °F
Humidity 81%
Rainfall 0.00 in
Snow Depth Not available.
7:45 AM 5:37 PM
Waning Crescent, 5% visible
METAR KFAR 061253Z 17010KT 10SM FEW120 M05/M08 A2991 RMK AO2 SLP146 T10501078

10-Day Weather Forecast

Almanac

Astronomy

Feb. 06, 2016 Rise Set
Actual Time
Civil Twilight
Nautical Twilight
Astronomical Twilight
Moon
Length of Visible Light
Length of Day
Tomorrow will be .
, % of the Moon is Illuminated

Today's Extremes

State Highs State Lows

Community

WunderPhotos

Upload Photos

1,890,971 photos uploaded!

WunderBlog® & News

Nearby

Air Quality

  Air Quality AQ Index Pollutant
Not available.

Snow Depth

Station Depth Elevation

Earthquake Activity

City Distance Mag. Time & Date
Minimum magnitude displayed is 2.5.

Coastal Water Temperatures

Place Temperature

Stations

Nearby Weather Stations

Station Location Temp. Windchill Dew Point Humidity Wind Precip. Elev Updated Type
                   

Watches & Warnings

Blizzard Watch
Issued: 4:08 AM CST Feb. 6, 2016 – National Weather Service

... Blizzard watch remains in effect from Sunday morning through
late Sunday night...

* timing... blizzard conditions are possible from Sunday morning
through late Sunday night.

* Winds / visibilities... winds gusting as high as 60 mph could
cause whiteout conditions in blowing snow. Significant
drifting of the snow is likely... especially in open areas.

* Snow accumulations... total snow accumulations of 1 to 3 inches
are possible.

* Impacts... travel could be very difficult to impossible.

Precautionary/preparedness actions...

A blizzard watch means there is a potential for falling and/or
blowing snow with strong winds and extremely poor visibilities.
This can lead to whiteout conditions and make travel very
dangerous.